createdAt,value
2018-01-29T00:00:17.882Z,31.13
2018-01-29T00:01:18.308Z,30.66
2018-01-29T00:02:18.740Z,30.28
2018-01-29T00:03:19.159Z,30.76
2018-01-29T00:04:19.588Z,31.04
2018-01-29T00:05:20.019Z,30.85
2018-01-29T00:06:20.441Z,30.57
2018-01-29T00:07:20.860Z,29.99
2018-01-29T00:08:21.287Z,30.09
2018-01-29T00:09:21.719Z,30.09
2018-01-29T00:10:22.145Z,29.99
2018-01-29T00:11:22.563Z,29.80
2018-01-29T00:12:22.991Z,29.99
2018-01-29T00:13:23.432Z,30.37
2018-01-29T00:14:23.844Z,29.80
2018-01-29T00:15:24.269Z,30.18
2018-01-29T00:16:24.726Z,29.42
2018-01-29T00:17:25.124Z,29.33
2018-01-29T00:18:25.545Z,29.52
2018-01-29T00:19:25.969Z,29.23
2018-01-29T00:20:26.398Z,29.33
2018-01-29T00:21:26.881Z,29.33
2018-01-29T00:22:27.263Z,30.28
2018-01-29T00:23:27.680Z,30.76
2018-01-29T00:24:28.103Z,31.23
2018-01-29T00:25:28.528Z,30.94
2018-01-29T00:26:28.954Z,31.23
2018-01-29T00:27:29.390Z,31.32
2018-01-29T00:28:29.808Z,0.00
2018-01-29T00:29:30.229Z,31.04
2018-01-29T00:30:30.661Z,30.57
2018-01-29T00:31:31.087Z,30.57
2018-01-29T00:32:31.510Z,30.47
2018-01-29T00:33:31.934Z,0.00
2018-01-29T00:34:32.365Z,30.94
2018-01-29T00:35:32.785Z,0.00
2018-01-29T00:36:33.213Z,31.23
2018-01-29T00:37:33.637Z,0.00
2018-01-29T00:38:34.070Z,0.00
2018-01-29T00:39:34.496Z,30.66
2018-01-29T00:40:34.911Z,29.91
2018-01-29T00:41:35.332Z,30.00
2018-01-29T00:42:35.764Z,0.00
2018-01-29T00:43:36.209Z,0.00
2018-01-29T00:44:36.624Z,0.00
2018-01-29T00:45:37.046Z,31.24
2018-01-29T00:46:37.469Z,31.34
2018-01-29T00:47:37.898Z,31.24
2018-01-29T00:48:38.326Z,31.44
2018-01-29T00:49:38.759Z,31.82
2018-01-29T00:50:39.176Z,31.90
2018-01-29T00:51:39.597Z,32.68
2018-01-29T00:52:40.030Z,0.00
2018-01-29T00:53:40.458Z,32.39
2018-01-29T00:54:40.880Z,32.20
2018-01-29T00:55:41.308Z,31.92
2018-01-29T00:56:41.734Z,31.72
2018-01-29T00:57:42.157Z,31.34
2018-01-29T00:58:42.585Z,31.44
2018-01-29T00:59:43.010Z,31.63
2018-01-29T01:00:43.436Z,31.92
2018-01-29T01:01:43.858Z,32.01
2018-01-29T01:02:44.288Z,31.92
2018-01-29T01:03:44.710Z,32.58
2018-01-29T01:04:45.143Z,32.68
2018-01-29T01:05:45.573Z,31.34
2018-01-29T01:06:45.991Z,31.24
2018-01-29T01:07:46.417Z,30.96
2018-01-29T01:08:46.842Z,31.24
2018-01-29T01:09:47.272Z,30.77
2018-01-29T01:10:47.692Z,30.77
2018-01-29T01:11:48.125Z,30.58
2018-01-29T01:12:48.549Z,30.49
2018-01-29T01:13:48.978Z,30.29
2018-01-29T01:14:49.400Z,29.63
2018-01-29T01:15:49.825Z,29.63
2018-01-29T01:16:50.256Z,29.53
2018-01-29T01:17:50.677Z,29.44
2018-01-29T01:18:51.103Z,29.25
2018-01-29T01:19:51.530Z,29.15
2018-01-29T01:20:51.952Z,29.15
2018-01-29T01:21:52.381Z,29.15
2018-01-29T01:22:52.806Z,29.25
2018-01-29T01:23:53.235Z,29.05
2018-01-29T01:24:53.657Z,29.05
2018-01-29T01:25:54.100Z,28.86
2018-01-29T01:26:54.526Z,28.20
2018-01-29T01:27:54.938Z,27.81
2018-01-29T01:28:55.363Z,27.91
2018-01-29T01:29:55.797Z,27.72
2018-01-29T01:30:56.218Z,27.34
2018-01-29T01:31:56.684Z,27.34
2018-01-29T01:32:57.095Z,26.58
2018-01-29T01:33:57.496Z,27.34
2018-01-29T01:34:57.921Z,27.15
2018-01-29T01:35:58.345Z,26.86
2018-01-29T01:36:58.771Z,26.48
2018-01-29T01:37:59.212Z,26.20
2018-01-29T01:38:59.627Z,26.20
2018-01-29T01:40:00.068Z,26.67
2018-01-29T01:41:00.479Z,26.58
2018-01-29T01:42:00.907Z,26.29
2018-01-29T01:43:01.339Z,25.72
2018-01-29T01:44:01.767Z,25.72
2018-01-29T01:45:02.184Z,25.53
2018-01-29T01:46:02.610Z,25.72
2018-01-29T01:47:03.033Z,26.10
2018-01-29T01:48:03.488Z,26.29
2018-01-29T01:49:03.893Z,26.20
2018-01-29T01:50:04.312Z,26.20
2018-01-29T01:51:04.737Z,26.20
2018-01-29T01:52:05.216Z,25.91
2018-01-29T01:53:05.597Z,24.87
2018-01-29T01:54:06.017Z,24.96
2018-01-29T01:55:06.445Z,24.77
2018-01-29T01:56:06.881Z,25.43
2018-01-29T01:57:07.391Z,25.82
2018-01-29T01:58:07.729Z,25.91
2018-01-29T01:59:08.153Z,26.67
2018-01-29T02:00:08.576Z,27.25
2018-01-29T02:01:09.004Z,27.53
2018-01-29T02:02:09.432Z,27.62
2018-01-29T02:03:09.854Z,28.10
2018-01-29T02:04:10.356Z,28.58
2018-01-29T02:05:10.712Z,28.96
2018-01-29T02:06:11.134Z,29.05
2018-01-29T02:07:11.568Z,30.00
2018-01-29T02:08:12.002Z,30.20
2018-01-29T02:09:12.417Z,30.49
2018-01-29T02:10:12.843Z,31.24
2018-01-29T02:11:13.266Z,31.63
2018-01-29T02:12:13.697Z,32.01
2018-01-29T02:13:14.121Z,32.48
2018-01-29T02:14:14.546Z,33.15
2018-01-29T02:15:14.972Z,33.15
2018-01-29T02:16:15.424Z,0.00
2018-01-29T02:17:15.825Z,34.11
2018-01-29T02:18:16.335Z,33.91
2018-01-29T02:19:16.678Z,34.01
2018-01-29T02:20:17.102Z,34.48
2018-01-29T02:21:17.528Z,34.20
2018-01-29T02:22:17.959Z,33.63
2018-01-29T02:23:18.384Z,33.34
2018-01-29T02:24:18.807Z,33.34
2018-01-29T02:25:19.235Z,33.63
2018-01-29T02:26:19.660Z,33.63
2018-01-29T02:27:20.090Z,33.82
2018-01-29T02:28:20.511Z,34.11
2018-01-29T02:29:20.947Z,34.48
2018-01-29T02:30:21.369Z,34.39
2018-01-29T02:31:21.791Z,34.96
2018-01-29T02:32:22.228Z,35.91
2018-01-29T02:33:22.646Z,35.44
2018-01-29T02:34:23.072Z,35.82
2018-01-29T02:35:23.497Z,35.82
2018-01-29T02:36:23.928Z,36.10
2018-01-29T02:37:24.348Z,36.01
2018-01-29T02:38:24.775Z,35.44
2018-01-29T02:39:25.236Z,35.25
2018-01-29T02:40:25.629Z,34.96
2018-01-29T02:41:26.051Z,34.96
2018-01-29T02:42:26.480Z,34.39
2018-01-29T02:43:26.906Z,33.91
2018-01-29T02:44:27.340Z,33.53
2018-01-29T02:45:27.756Z,33.63
2018-01-29T02:46:28.203Z,33.72
2018-01-29T02:47:28.615Z,33.53
2018-01-29T02:48:29.046Z,32.87
2018-01-29T02:49:29.466Z,32.87
2018-01-29T02:50:29.897Z,32.87
2018-01-29T02:51:30.318Z,32.77
2018-01-29T02:52:30.742Z,32.48
2018-01-29T02:53:31.173Z,32.58
2018-01-29T02:54:31.593Z,32.77
2018-01-29T02:55:32.020Z,33.06
2018-01-29T02:56:32.445Z,33.34
2018-01-29T02:57:32.878Z,33.63
2018-01-29T02:58:33.301Z,33.63
2018-01-29T02:59:33.732Z,34.01
2018-01-29T03:00:34.155Z,33.72
2018-01-29T03:01:34.681Z,33.15
2018-01-29T03:02:35.043Z,33.06
2018-01-29T03:03:35.440Z,33.53
2018-01-29T03:04:35.856Z,33.91
2018-01-29T03:05:36.289Z,34.39
2018-01-29T03:06:36.712Z,34.50
2018-01-29T03:07:37.136Z,34.87
2018-01-29T03:08:37.564Z,35.15
2018-01-29T03:09:37.994Z,35.53
2018-01-29T03:10:38.418Z,35.44
2018-01-29T03:11:38.849Z,35.91
2018-01-29T03:12:39.270Z,35.63
2018-01-29T03:13:39.702Z,35.91
2018-01-29T03:14:40.124Z,35.55
2018-01-29T03:15:40.558Z,35.91
2018-01-29T03:16:40.974Z,36.87
2018-01-29T03:17:41.400Z,36.96
2018-01-29T03:18:41.835Z,37.15
2018-01-29T03:19:42.261Z,37.15
2018-01-29T03:20:42.685Z,37.44
2018-01-29T03:21:43.109Z,37.63
2018-01-29T03:22:43.536Z,38.10
2018-01-29T03:23:43.963Z,38.29
2018-01-29T03:24:44.393Z,38.10
2018-01-29T03:25:44.815Z,38.49
2018-01-29T03:26:45.239Z,38.49
2018-01-29T03:27:45.665Z,39.44
2018-01-29T03:28:46.095Z,40.11
2018-01-29T03:29:46.523Z,40.20
2018-01-29T03:30:46.947Z,40.20
2018-01-29T03:31:47.375Z,40.11
2018-01-29T03:32:47.813Z,40.12
2018-01-29T03:33:48.241Z,40.20
2018-01-29T03:34:48.653Z,40.32
2018-01-29T03:35:49.078Z,40.20
2018-01-29T03:36:49.506Z,40.97
2018-01-29T03:37:49.930Z,42.40
2018-01-29T03:38:50.361Z,42.96
2018-01-29T03:39:50.784Z,44.01
2018-01-29T03:40:51.216Z,45.65
2018-01-29T03:41:51.636Z,46.80
2018-01-29T03:42:52.076Z,47.28
2018-01-29T03:43:52.523Z,48.21
2018-01-29T03:44:52.916Z,48.49
2018-01-29T03:45:53.343Z,48.11
2018-01-29T03:46:53.772Z,47.16
2018-01-29T03:47:54.201Z,46.20
2018-01-29T03:48:54.629Z,46.11
2018-01-29T03:49:55.129Z,45.92
2018-01-29T03:50:55.473Z,46.39
2018-01-29T03:51:55.907Z,46.70
2018-01-29T03:52:56.331Z,47.94
2018-01-29T03:53:57.339Z,49.28
2018-01-29T03:54:57.185Z,49.95
2018-01-29T03:55:57.617Z,50.61
2018-01-29T03:56:58.039Z,50.90
2018-01-29T03:57:58.468Z,51.18
2018-01-29T03:58:58.890Z,51.85
2018-01-29T03:59:59.319Z,52.61
2018-01-29T04:00:59.743Z,52.40
2018-01-29T04:02:00.172Z,52.14
2018-01-29T04:03:00.605Z,52.90
2018-01-29T04:04:01.026Z,52.23
2018-01-29T04:05:01.450Z,53.00
2018-01-29T04:06:01.883Z,53.95
2018-01-29T04:07:02.306Z,55.19
2018-01-29T04:08:02.732Z,55.28
2018-01-29T04:09:03.164Z,55.85
2018-01-29T04:10:03.594Z,56.33
2018-01-29T04:11:04.018Z,57.00
2018-01-29T04:12:04.438Z,57.38
2018-01-29T04:13:04.874Z,56.90
2018-01-29T04:14:05.289Z,55.63
2018-01-29T04:15:05.779Z,55.85
2018-01-29T04:16:06.228Z,56.14
2018-01-29T04:17:06.576Z,55.85
2018-01-29T04:18:06.999Z,56.62
2018-01-29T04:19:07.425Z,56.90
2018-01-29T04:20:07.853Z,57.09
2018-01-29T04:21:08.279Z,57.00
2018-01-29T04:22:08.705Z,57.67
2018-01-29T04:23:09.138Z,57.86
2018-01-29T04:24:09.561Z,58.43
2018-01-29T04:25:09.989Z,59.09
2018-01-29T04:26:10.413Z,59.09
2018-01-29T04:27:10.845Z,59.76
2018-01-29T04:28:11.266Z,60.05
2018-01-29T04:29:11.742Z,59.38
2018-01-29T04:30:12.117Z,60.05
2018-01-29T04:31:12.547Z,60.33
2018-01-29T04:32:12.970Z,60.52
2018-01-29T04:33:13.408Z,61.10
2018-01-29T04:34:13.827Z,61.10
2018-01-29T04:35:14.257Z,59.67
2018-01-29T04:36:14.683Z,60.43
2018-01-29T04:37:15.109Z,60.43
2018-01-29T04:38:15.535Z,60.43
2018-01-29T04:39:15.967Z,61.38
2018-01-29T04:40:16.389Z,60.52
2018-01-29T04:41:16.812Z,60.62
2018-01-29T04:42:17.248Z,60.62
2018-01-29T04:43:17.675Z,60.62
2018-01-29T04:44:18.095Z,60.52
2018-01-29T04:45:18.535Z,60.24
2018-01-29T04:46:18.949Z,59.00
2018-01-29T04:47:19.375Z,59.19
2018-01-29T04:48:19.802Z,60.05
2018-01-29T04:49:20.245Z,60.43
2018-01-29T04:50:20.656Z,60.62
2018-01-29T04:51:21.085Z,61.38
2018-01-29T04:52:21.511Z,62.52
2018-01-29T04:53:21.944Z,62.52
2018-01-29T04:54:22.371Z,63.20
2018-01-29T04:55:22.792Z,63.39
2018-01-29T04:56:23.224Z,61.76
2018-01-29T04:57:23.646Z,61.48
2018-01-29T04:58:24.077Z,61.67
2018-01-29T04:59:24.502Z,62.43
2018-01-29T05:00:24.927Z,62.72
2018-01-29T05:01:25.355Z,61.86
2018-01-29T05:02:25.788Z,61.48
2018-01-29T05:03:26.209Z,61.57
2018-01-29T05:04:26.637Z,61.48
2018-01-29T05:05:27.060Z,61.29
2018-01-29T05:06:27.490Z,61.29
2018-01-29T05:07:27.913Z,61.48
2018-01-29T05:08:28.343Z,59.35
2018-01-29T05:09:28.769Z,58.11
2018-01-29T05:10:29.196Z,57.67
2018-01-29T05:11:29.627Z,57.07
2018-01-29T05:12:30.058Z,56.97
2018-01-29T05:13:30.483Z,55.95
2018-01-29T05:14:30.914Z,55.00
2018-01-29T05:15:31.334Z,56.14
2018-01-29T05:16:31.761Z,56.33
2018-01-29T05:17:32.190Z,56.59
2018-01-29T05:18:32.618Z,56.02
2018-01-29T05:19:33.037Z,54.88
2018-01-29T05:20:33.472Z,55.76
2018-01-29T05:21:33.893Z,56.97
2018-01-29T05:22:34.326Z,56.87
2018-01-29T05:23:34.748Z,57.26
2018-01-29T05:24:35.175Z,56.78
2018-01-29T05:25:35.600Z,57.35
2018-01-29T05:26:36.035Z,57.54
2018-01-29T05:27:36.456Z,57.57
2018-01-29T05:28:36.880Z,58.33
2018-01-29T05:29:37.312Z,58.43
2018-01-29T05:30:37.738Z,59.38
2018-01-29T05:31:38.159Z,59.35
2018-01-29T05:32:38.613Z,59.95
2018-01-29T05:33:39.024Z,59.28
2018-01-29T05:34:39.440Z,60.24
2018-01-29T05:35:40.049Z,60.33
2018-01-29T05:36:40.288Z,61.38
2018-01-29T05:37:40.723Z,61.86
2018-01-29T05:38:41.155Z,62.43
2018-01-29T05:39:41.575Z,62.52
2018-01-29T05:40:42.005Z,62.40
2018-01-29T05:41:42.448Z,61.86
2018-01-29T05:42:42.863Z,61.96
2018-01-29T05:43:43.293Z,62.52
2018-01-29T05:44:43.721Z,62.72
2018-01-29T05:45:44.139Z,62.05
2018-01-29T05:46:44.563Z,61.76
2018-01-29T05:47:44.995Z,61.64
2018-01-29T05:48:45.419Z,62.12
2018-01-29T05:49:45.849Z,61.93
2018-01-29T05:50:46.273Z,61.67
2018-01-29T05:51:46.742Z,60.11
2018-01-29T05:52:47.128Z,60.43
2018-01-29T05:53:47.551Z,59.76
2018-01-29T05:54:47.981Z,60.02
2018-01-29T05:55:48.412Z,60.43
2018-01-29T05:56:48.835Z,59.83
2018-01-29T05:57:49.257Z,60.30
2018-01-29T05:58:49.701Z,59.26
2018-01-29T05:59:50.116Z,60.30
2018-01-29T06:00:50.543Z,59.83
2018-01-29T06:01:50.967Z,60.24
2018-01-29T06:02:51.394Z,60.21
2018-01-29T06:03:51.821Z,60.30
2018-01-29T06:04:52.245Z,61.07
2018-01-29T06:05:52.679Z,60.40
2018-01-29T06:06:53.101Z,61.07
2018-01-29T06:07:53.525Z,61.57
2018-01-29T06:08:53.964Z,61.73
2018-01-29T06:09:54.381Z,61.67
2018-01-29T06:10:54.804Z,62.49
2018-01-29T06:11:55.233Z,63.35
2018-01-29T06:12:55.659Z,63.92
2018-01-29T06:13:56.085Z,64.43
2018-01-29T06:14:56.519Z,65.67
2018-01-29T06:15:56.941Z,65.48
2018-01-29T06:16:57.364Z,65.77
2018-01-29T06:17:57.792Z,65.20
2018-01-29T06:18:58.227Z,65.39
2018-01-29T06:19:58.652Z,65.77
2018-01-29T06:20:59.073Z,66.63
2018-01-29T06:21:59.505Z,66.78
2018-01-29T06:22:59.925Z,66.63
2018-01-29T06:24:00.355Z,66.40
2018-01-29T06:25:00.778Z,66.02
2018-01-29T06:26:01.206Z,65.39
2018-01-29T06:27:01.633Z,65.36
2018-01-29T06:28:02.097Z,65.58
2018-01-29T06:29:02.487Z,65.58
2018-01-29T06:30:02.915Z,65.92
2018-01-29T06:31:03.339Z,65.55
2018-01-29T06:32:03.773Z,65.58
2018-01-29T06:33:04.194Z,66.02
2018-01-29T06:34:04.620Z,66.02
2018-01-29T06:35:05.046Z,65.55
2018-01-29T06:36:05.477Z,65.55
2018-01-29T06:37:05.901Z,66.72
2018-01-29T06:38:06.326Z,66.82
2018-01-29T06:39:06.756Z,67.96
2018-01-29T06:40:07.181Z,68.63
2018-01-29T06:41:07.609Z,69.58
2018-01-29T06:42:08.119Z,70.25
2018-01-29T06:43:08.497Z,71.96
2018-01-29T06:44:08.893Z,72.25
2018-01-29T06:45:09.324Z,72.63
2018-01-29T06:46:09.744Z,73.30
2018-01-29T06:47:10.173Z,73.58
2018-01-29T06:48:10.598Z,74.16
2018-01-29T06:49:11.026Z,73.87
2018-01-29T06:50:11.457Z,74.35
2018-01-29T06:51:11.976Z,74.54
2018-01-29T06:52:12.350Z,74.63
2018-01-29T06:53:12.733Z,75.11
2018-01-29T06:54:13.160Z,0.00
2018-01-29T06:55:13.588Z,75.49
2018-01-29T06:56:14.013Z,75.59
2018-01-29T06:57:14.434Z,76.82
2018-01-29T06:58:14.863Z,77.97
2018-01-29T06:59:15.293Z,77.40
2018-01-29T07:00:15.719Z,77.40
2018-01-29T07:01:16.150Z,77.97
2018-01-29T07:02:16.575Z,77.87
2018-01-29T07:03:16.997Z,77.49
2018-01-29T07:04:17.436Z,78.64
2018-01-29T07:05:17.848Z,78.35
2018-01-29T07:06:18.278Z,80.35
2018-01-29T07:07:18.705Z,80.92
2018-01-29T07:08:19.133Z,81.21
2018-01-29T07:09:19.564Z,83.21
2018-01-29T07:10:19.985Z,82.17
2018-01-29T07:11:20.416Z,83.02
2018-01-29T07:12:20.838Z,83.97
2018-01-29T07:13:21.351Z,0.00
2018-01-29T07:14:21.680Z,84.64
2018-01-29T07:15:22.115Z,85.60
2018-01-29T07:16:22.546Z,85.69
2018-01-29T07:17:22.972Z,86.07
2018-01-29T07:18:23.398Z,86.36
2018-01-29T07:19:23.828Z,0.00
2018-01-29T07:20:24.255Z,85.97
2018-01-29T07:21:24.677Z,86.83
2018-01-29T07:22:25.114Z,87.12
2018-01-29T07:23:25.531Z,87.50
2018-01-29T07:24:26.002Z,88.17
2018-01-29T07:25:26.495Z,88.26
2018-01-29T07:26:26.804Z,88.59
2018-01-29T07:27:27.242Z,88.07
2018-01-29T07:28:27.666Z,88.21
2018-01-29T07:29:28.169Z,88.78
2018-01-29T07:30:28.528Z,88.64
2018-01-29T07:31:28.948Z,89.22
2018-01-29T07:32:29.376Z,89.50
2018-01-29T07:33:29.806Z,89.12
2018-01-29T07:34:30.229Z,90.12
2018-01-29T07:35:30.659Z,90.26
2018-01-29T07:36:31.082Z,90.36
2018-01-29T07:37:31.515Z,0.00
2018-01-29T07:38:31.937Z,0.00
2018-01-29T07:39:32.366Z,0.00
2018-01-29T07:40:32.794Z,0.00
2018-01-29T07:41:33.219Z,0.00
2018-01-29T07:42:33.673Z,0.00
2018-01-29T07:43:34.081Z,0.00
2018-01-29T07:44:34.505Z,91.46
2018-01-29T07:45:34.931Z,91.50
2018-01-29T07:46:35.353Z,91.83
2018-01-29T07:47:35.873Z,91.74
2018-01-29T07:48:36.202Z,92.60
2018-01-29T07:49:36.686Z,93.12
2018-01-29T07:50:37.067Z,92.74
2018-01-29T07:51:37.491Z,92.60
2018-01-29T07:52:37.923Z,93.12
2018-01-29T07:53:38.366Z,92.88
2018-01-29T07:54:38.842Z,0.00
2018-01-29T07:55:39.203Z,0.00
2018-01-29T07:56:39.629Z,93.74
2018-01-29T07:57:40.064Z,93.84
2018-01-29T07:58:40.484Z,94.12
2018-01-29T07:59:40.912Z,93.84
2018-01-29T08:00:41.337Z,94.32
2018-01-29T08:01:41.770Z,94.03
2018-01-29T08:02:42.192Z,94.41
2018-01-29T08:03:42.618Z,94.22
2018-01-29T08:04:43.067Z,94.32
2018-01-29T08:05:43.476Z,95.17
2018-01-29T08:06:43.899Z,94.98
2018-01-29T08:07:44.329Z,95.46
2018-01-29T08:08:44.757Z,95.65
2018-01-29T08:09:45.182Z,95.08
2018-01-29T08:10:45.612Z,94.98
2018-01-29T08:11:46.036Z,95.37
2018-01-29T08:12:46.463Z,95.46
2018-01-29T08:13:46.893Z,95.65
2018-01-29T08:14:47.323Z,95.37
2018-01-29T08:15:47.746Z,95.56
2018-01-29T08:16:48.173Z,95.84
2018-01-29T08:17:48.605Z,95.37
2018-01-29T08:18:49.026Z,96.13
2018-01-29T08:19:49.453Z,95.94
2018-01-29T08:20:49.888Z,96.03
2018-01-29T08:21:50.312Z,95.84
2018-01-29T08:22:50.759Z,96.22
2018-01-29T08:23:51.166Z,96.41
2018-01-29T08:24:51.593Z,96.51
2018-01-29T08:25:52.018Z,96.51
2018-01-29T08:26:52.448Z,96.70
2018-01-29T08:27:52.875Z,96.61
2018-01-29T08:28:53.302Z,96.13
2018-01-29T08:29:53.732Z,96.32
2018-01-29T08:30:54.161Z,96.61
2018-01-29T08:31:54.617Z,96.41
2018-01-29T08:32:55.019Z,96.98
2018-01-29T08:33:55.439Z,96.41
2018-01-29T08:34:55.867Z,96.41
2018-01-29T08:35:56.304Z,96.98
2018-01-29T08:36:56.766Z,96.61
2018-01-29T08:37:57.150Z,96.80
2018-01-29T08:38:57.576Z,96.61
2018-01-29T08:39:58.007Z,96.80
2018-01-29T08:40:58.436Z,96.80
2018-01-29T08:41:58.920Z,96.89
2018-01-29T08:42:59.292Z,97.56
2018-01-29T08:43:59.715Z,97.17
2018-01-29T08:45:00.149Z,97.17
2018-01-29T08:46:00.571Z,97.08
2018-01-29T08:47:00.999Z,96.51
2018-01-29T08:48:01.429Z,97.46
2018-01-29T08:49:01.872Z,97.37
2018-01-29T08:50:02.283Z,97.46
2018-01-29T08:51:02.716Z,97.17
2018-01-29T08:52:03.137Z,97.17
2018-01-29T08:53:03.564Z,97.75
2018-01-29T08:54:03.999Z,97.17
2018-01-29T08:55:04.421Z,97.85
2018-01-29T08:56:04.848Z,97.66
2018-01-29T08:57:05.279Z,97.85
2018-01-29T08:58:05.722Z,97.66
2018-01-29T08:59:06.134Z,98.51
2018-01-29T09:00:06.564Z,97.56
2018-01-29T09:01:07.058Z,97.85
2018-01-29T09:02:07.415Z,97.66
2018-01-29T09:03:07.845Z,98.42
2018-01-29T09:04:08.271Z,98.70
2018-01-29T09:05:08.699Z,98.03
2018-01-29T09:06:09.129Z,0.00
2018-01-29T09:07:09.558Z,97.85
2018-01-29T09:08:09.982Z,98.42
2018-01-29T09:09:10.417Z,98.51
2018-01-29T09:10:10.841Z,98.42
2018-01-29T09:11:11.264Z,98.22
2018-01-29T09:12:11.694Z,97.75
2018-01-29T09:13:12.175Z,98.42
2018-01-29T09:14:12.552Z,98.61
2018-01-29T09:15:12.981Z,98.61
2018-01-29T09:16:13.405Z,98.61
2018-01-29T09:17:13.833Z,98.32
2018-01-29T09:18:14.263Z,98.51
2018-01-29T09:19:14.687Z,98.61
2018-01-29T09:20:15.115Z,98.51
2018-01-29T09:21:15.545Z,98.32
2018-01-29T09:22:15.973Z,98.51
2018-01-29T09:23:16.400Z,97.94
2018-01-29T09:24:16.832Z,98.70
2018-01-29T09:25:17.256Z,98.22
2018-01-29T09:26:17.684Z,98.42
2018-01-29T09:27:18.112Z,98.51
2018-01-29T09:28:18.579Z,98.03
2018-01-29T09:29:18.970Z,98.51
2018-01-29T09:30:19.399Z,98.22
2018-01-29T09:31:19.828Z,98.51
2018-01-29T09:32:20.254Z,98.51
2018-01-29T09:33:20.682Z,98.22
2018-01-29T09:34:21.110Z,98.80
2018-01-29T09:35:21.536Z,98.13
2018-01-29T09:36:21.965Z,98.22
2018-01-29T09:37:22.392Z,98.22
2018-01-29T09:38:22.825Z,98.13
2018-01-29T09:39:23.249Z,98.22
2018-01-29T09:40:23.676Z,98.42
2018-01-29T09:41:24.139Z,98.32
2018-01-29T09:42:24.527Z,98.13
2018-01-29T09:43:24.967Z,98.42
2018-01-29T09:44:25.382Z,98.13
2018-01-29T09:45:25.810Z,98.22
2018-01-29T09:46:26.237Z,98.80
2018-01-29T09:47:26.673Z,98.32
2018-01-29T09:48:27.092Z,98.99
2018-01-29T09:49:27.520Z,98.90
2018-01-29T09:50:27.957Z,98.80
2018-01-29T09:51:28.376Z,98.51
2018-01-29T09:52:28.812Z,98.03
2018-01-29T09:53:29.255Z,98.42
2018-01-29T09:54:29.658Z,98.80
2018-01-29T09:55:30.088Z,98.42
2018-01-29T09:56:30.515Z,98.51
2018-01-29T09:57:30.940Z,98.90
2018-01-29T09:58:31.372Z,98.42
2018-01-29T09:59:31.810Z,98.13
2018-01-29T10:00:32.270Z,98.80
2018-01-29T10:01:32.652Z,98.90
2018-01-29T10:02:33.080Z,98.13
2018-01-29T10:03:33.513Z,98.42
2018-01-29T10:04:33.936Z,98.42
2018-01-29T10:05:34.364Z,98.42
2018-01-29T10:06:34.790Z,98.32
2018-01-29T10:07:35.220Z,98.42
2018-01-29T10:08:35.648Z,98.42
2018-01-29T10:09:36.074Z,98.42
2018-01-29T10:10:36.599Z,98.32
2018-01-29T10:11:36.922Z,98.42
2018-01-29T10:12:37.354Z,98.80
2018-01-29T10:13:37.791Z,98.51
2018-01-29T10:14:38.219Z,98.32
2018-01-29T10:15:38.655Z,98.42
2018-01-29T10:16:39.068Z,98.51
2018-01-29T10:17:39.494Z,98.42
2018-01-29T10:18:39.920Z,98.42
2018-01-29T10:19:40.353Z,98.61
2018-01-29T10:20:40.779Z,98.42
2018-01-29T10:21:41.202Z,98.13
2018-01-29T10:22:41.630Z,98.22
2018-01-29T10:23:42.063Z,98.27
2018-01-29T10:24:42.484Z,98.42
2018-01-29T10:25:42.917Z,98.13
2018-01-29T10:26:43.349Z,98.51
2018-01-29T10:27:43.772Z,98.80
2018-01-29T10:28:44.198Z,98.51
2018-01-29T10:29:44.629Z,98.13
2018-01-29T10:30:45.051Z,98.51
2018-01-29T10:31:45.484Z,98.47
2018-01-29T10:32:45.911Z,98.75
2018-01-29T10:33:46.335Z,98.56
2018-01-29T10:34:46.763Z,98.66
2018-01-29T10:35:47.200Z,98.08
2018-01-29T10:36:47.616Z,97.99
2018-01-29T10:37:48.048Z,98.37
2018-01-29T10:38:48.475Z,97.89
2018-01-29T10:39:48.902Z,98.80
2018-01-29T10:40:49.330Z,98.32
2018-01-29T10:41:49.762Z,98.32
2018-01-29T10:42:50.186Z,98.85
2018-01-29T10:43:50.615Z,98.70
2018-01-29T10:44:51.050Z,98.75
2018-01-29T10:45:51.468Z,98.08
2018-01-29T10:46:51.897Z,98.85
2018-01-29T10:47:52.323Z,98.56
2018-01-29T10:48:52.754Z,98.56
2018-01-29T10:49:53.183Z,98.37
2018-01-29T10:50:53.609Z,98.37
2018-01-29T10:51:54.040Z,98.27
2018-01-29T10:52:54.463Z,98.37
2018-01-29T10:53:54.910Z,98.27
2018-01-29T10:54:55.331Z,98.56
2018-01-29T10:55:55.757Z,99.04
2018-01-29T10:56:56.178Z,98.80
2018-01-29T10:57:56.603Z,99.46
2018-01-29T10:58:57.033Z,99.37
2018-01-29T10:59:57.463Z,99.46
2018-01-29T11:00:57.890Z,99.66
2018-01-29T11:01:58.314Z,99.46
2018-01-29T11:02:58.745Z,98.99
2018-01-29T11:03:59.172Z,99.66
2018-01-29T11:04:59.597Z,99.56
2018-01-29T11:06:00.146Z,99.66
2018-01-29T11:07:00.454Z,99.66
2018-01-29T11:08:00.882Z,99.66
2018-01-29T11:09:01.310Z,99.46
2018-01-29T11:10:01.736Z,99.56
2018-01-29T11:11:02.166Z,99.56
2018-01-29T11:12:02.596Z,99.27
2018-01-29T11:13:03.019Z,99.37
2018-01-29T11:14:03.448Z,99.46
2018-01-29T11:15:03.878Z,99.75
2018-01-29T11:16:04.302Z,99.75
2018-01-29T11:17:04.735Z,99.99
2018-01-29T11:18:05.219Z,99.75
2018-01-29T11:19:05.589Z,99.99
2018-01-29T11:20:06.020Z,99.85
2018-01-29T11:21:06.442Z,99.85
2018-01-29T11:22:06.870Z,99.85
2018-01-29T11:23:07.300Z,99.95
2018-01-29T11:24:07.738Z,99.95
2018-01-29T11:25:08.155Z,99.85
2018-01-29T11:26:08.583Z,99.99
2018-01-29T11:27:09.015Z,99.99
2018-01-29T11:28:09.437Z,99.99
2018-01-29T11:29:09.868Z,99.99
2018-01-29T11:30:10.296Z,99.75
2018-01-29T11:31:10.723Z,99.99
2018-01-29T11:32:11.150Z,99.99
2018-01-29T11:33:11.579Z,99.99
2018-01-29T11:34:12.008Z,99.99
2018-01-29T11:35:12.438Z,99.37
2018-01-29T11:36:12.863Z,99.75
2018-01-29T11:37:13.290Z,99.99
2018-01-29T11:38:13.725Z,99.99
2018-01-29T11:39:14.157Z,99.99
2018-01-29T11:40:14.573Z,99.99
2018-01-29T11:41:15.005Z,99.99
2018-01-29T11:42:15.433Z,99.99
2018-01-29T11:43:15.860Z,99.99
2018-01-29T11:44:16.283Z,99.99
2018-01-29T11:45:16.728Z,99.99
2018-01-29T11:46:17.142Z,99.75
2018-01-29T11:47:17.568Z,99.99
2018-01-29T11:48:17.994Z,99.46
2018-01-29T11:49:18.424Z,99.66
2018-01-29T11:50:18.855Z,99.85
2018-01-29T11:51:19.281Z,99.75
2018-01-29T11:52:19.708Z,99.99
2018-01-29T11:53:20.136Z,99.46
2018-01-29T11:54:20.562Z,98.70
2018-01-29T11:55:21.000Z,99.08
2018-01-29T11:56:21.421Z,99.56
2018-01-29T11:57:21.851Z,99.75
2018-01-29T11:58:22.277Z,99.08
2018-01-29T11:59:22.702Z,99.46
2018-01-29T12:00:23.131Z,99.27
2018-01-29T12:01:23.562Z,99.66
2018-01-29T12:02:23.988Z,99.66
2018-01-29T12:03:24.413Z,98.61
2018-01-29T12:04:24.840Z,98.90
2018-01-29T12:05:25.269Z,98.80
2018-01-29T12:06:25.700Z,98.90
2018-01-29T12:07:26.161Z,98.51
2018-01-29T12:08:26.551Z,98.80
2018-01-29T12:09:26.999Z,98.22
2018-01-29T12:10:27.407Z,98.51
2018-01-29T12:11:27.837Z,97.94
2018-01-29T12:12:28.266Z,97.80
2018-01-29T12:13:28.690Z,98.22
2018-01-29T12:14:29.125Z,97.66
2018-01-29T12:15:29.553Z,98.03
2018-01-29T12:16:29.976Z,97.75
2018-01-29T12:17:30.403Z,97.94
2018-01-29T12:18:30.828Z,98.42
2018-01-29T12:19:31.259Z,97.85
2018-01-29T12:20:31.682Z,97.85
2018-01-29T12:21:32.191Z,97.42
2018-01-29T12:22:32.552Z,97.51
2018-01-29T12:23:32.971Z,96.98
2018-01-29T12:24:33.401Z,96.84
2018-01-29T12:25:33.824Z,96.80
2018-01-29T12:26:34.253Z,96.61
2018-01-29T12:27:34.674Z,96.70
2018-01-29T12:28:35.112Z,96.41
2018-01-29T12:29:35.533Z,96.61
2018-01-29T12:30:35.967Z,96.70
2018-01-29T12:31:36.395Z,96.84
2018-01-29T12:32:36.820Z,96.56
2018-01-29T12:33:37.249Z,96.75
2018-01-29T12:34:37.678Z,96.46
2018-01-29T12:35:38.102Z,96.27
2018-01-29T12:36:38.542Z,96.08
2018-01-29T12:37:38.960Z,96.22
2018-01-29T12:38:39.394Z,96.17
2018-01-29T12:39:39.818Z,96.27
2018-01-29T12:40:40.244Z,96.66
2018-01-29T12:41:40.680Z,96.27
2018-01-29T12:42:41.102Z,95.70
2018-01-29T12:43:41.530Z,95.79
2018-01-29T12:44:41.957Z,95.61
2018-01-29T12:45:42.390Z,95.61
2018-01-29T12:46:42.816Z,95.61
2018-01-29T12:47:43.246Z,95.70
2018-01-29T12:48:43.700Z,96.27
2018-01-29T12:49:44.101Z,96.27
2018-01-29T12:50:44.530Z,96.56
2018-01-29T12:51:44.961Z,96.17
2018-01-29T12:52:45.442Z,95.98
2018-01-29T12:53:45.830Z,96.17
2018-01-29T12:54:46.244Z,95.98
2018-01-29T12:55:46.672Z,95.79
2018-01-29T12:56:47.106Z,95.98
2018-01-29T12:57:47.529Z,95.75
2018-01-29T12:58:47.963Z,95.75